CMA CGM Butterfly — A8NO8 — position and weather

sailwx.info

Track history (hours):
 
Tides and Currents Weather Stations Pressure Air Temp Water Temp Dewpoint Dewpoint Depression Visibility Wind Speed Wind Dir Waves Ship Positions

CMA CGM Butterfly

Last reported at 2016-Jul-30 04:33 UTC. Time now 2016-Jul-30 05:26 UTC.
Position N 22°20' E 114°08'.

Length 350 m; draft 10.2 m.

Type: Ship (hazmat cat A). MMSI: 636091420.

Date/timePositionNaut miles runAvg speedWind from/ knotsBaromVisibWave heightAir tempDewpointWater temp
2016-Jul-30 04:33N 22°20' E 114°08'0 0.0
2016-Jul-30 03:33N 22°20' E 114°08'0 0.0
2016-Jul-30 02:33N 22°20' E 114°08'0 0.0
2016-Jul-30 01:27N 22°20' E 114°08'14511.2
2016-Jul-29 12:33N 22°43' E 116°42'6 9.9
2016-Jul-29 12:00N 22°42' E 116°48'1720.4 290 / 141007.510.8 0.525.022.927.0
2016-Jul-29 11:10N 22°55' E 117°00'914.1
2016-Jul-29 10:33N 22°60' E 117°08'6913.8
2016-Jul-29 05:33N 23°36' E 118°11'1413.8
2016-Jul-29 04:30N 23°44' E 118°25'1313.9
2016-Jul-29 03:33N 23°51' E 118°37'1813.8
2016-Jul-29 02:15N 23°60' E 118°54'1214.0
2016-Jul-29 01:22N 24°08' E 119°04'1611.7
2016-Jul-29 00:00N 24°18' E 119°18'1221.0 170 / 101007.010.8 27.526.827.0
2016-Jul-28 23:26N 24°29' E 119°24'1213.6
2016-Jul-28 22:32N 24°37' E 119°33'1313.3
2016-Jul-28 21:33N 24°47' E 119°43'1413.7
2016-Jul-28 20:33N 24°58' E 119°52'1313.5
2016-Jul-28 19:33N 25°07' E 120°03'10113.3
2016-Jul-28 12:00N 26°30' E 121°06'14713.8 190 / 131007.5 5.4 0.528.027.327.0
2016-Jul-28 01:17N 28°37' E 122°29'1418.6
2016-Jul-28 00:33N 28°50' E 122°34'4 7.2
2016-Jul-28 00:00N 28°54' E 122°36'1221.9 200 / 111006.5 5.4 0.527.527.526.0
2016-Jul-27 23:26N 29°06' E 122°40'1414.1
2016-Jul-27 22:25N 29°19' E 122°46'1314.2
2016-Jul-27 21:29N 29°32' E 122°51'1414.0
2016-Jul-27 20:27N 29°45' E 122°56'1314.1
2016-Jul-27 19:33N 29°57' E 123°01'2813.5
2016-Jul-27 17:31N 30°25' E 122°59'1513.1
2016-Jul-27 16:21N 30°40' E 122°58'1113.4
2016-Jul-27 15:31N 30°51' E 122°56'2612.2
2016-Jul-27 13:24N 31°05' E 122°31'1011.0
2016-Jul-27 12:31N 31°06' E 122°19'1212.1
2016-Jul-27 11:33N 31°12' E 122°08'1413.5
2016-Jul-27 10:32N 31°16' E 121°52'1211.7
2016-Jul-27 09:33N 31°21' E 121°40'5 4.5
2016-Jul-27 08:26N 31°23' E 121°35'0 0.0
2016-Jul-27 07:32N 31°23' E 121°35'0 0.0
2016-Jul-27 06:32N 31°23' E 121°35'0 0.0
2016-Jul-27 05:32N 31°23' E 121°35'0 0.0
2016-Jul-27 04:32N 31°23' E 121°35'0 0.0
2016-Jul-27 03:29N 31°23' E 121°35'0 0.0
2016-Jul-27 02:32N 31°23' E 121°35'0 0.1
2016-Jul-27 01:26N 31°23' E 121°35'0 0.1
2016-Jul-27 00:32N 31°23' E 121°35'0 0.0
2016-Jul-26 23:32N 31°23' E 121°35'0 0.0
2016-Jul-26 22:32N 31°23' E 121°35'0 0.0
2016-Jul-26 21:32N 31°23' E 121°35'0 0.0
2016-Jul-26 20:32N 31°23' E 121°35'0 0.0
2016-Jul-26 19:26N 31°23' E 121°35'0 0.0
2016-Jul-26 17:32N 31°23' E 121°35'0 0.0
2016-Jul-26 16:29N 31°23' E 121°35'0 0.0
2016-Jul-26 15:32N 31°23' E 121°35'0 0.0
2016-Jul-26 14:20N 31°23' E 121°35'0 0.0
2016-Jul-26 13:20N 31°23' E 121°35'0 0.0
2016-Jul-26 12:32N 31°23' E 121°35'0 0.0
2016-Jul-26 11:32N 31°23' E 121°35'0 0.0
2016-Jul-26 10:32N 31°23' E 121°35'0 0.0
2016-Jul-26 09:32N 31°23' E 121°35'1 0.9
2016-Jul-26 08:32N 31°23' E 121°34'7 6.9
2016-Jul-26 07:33N 31°20' E 121°41'1010.5
2016-Jul-26 06:33N 31°16' E 121°52'1110.8
2016-Jul-26 05:32N 31°14' E 122°05'19 9.1
2016-Jul-26 03:28N 31°07' E 122°25'9 9.5
2016-Jul-26 02:31N 31°07' E 122°36'1 0.5
2016-Jul-26 00:00N 31°06' E 122°36'3 0.4 170 / 201007.0 5.4 1.026.025.326.0
2016-Jul-25 14:31N 31°09' E 122°39'0 0.0
2016-Jul-25 12:28N 31°09' E 122°39'0 0.1
2016-Jul-25 11:31N 31°09' E 122°39'0 0.0
2016-Jul-25 10:19N 31°09' E 122°39'0 0.0
2016-Jul-25 00:21N 31°09' E 122°39'3 9.4
2016-Jul-25 00:00N 31°06' E 122°36'3 3.7 170 / 171010.810.8 0.527.024.326.0
2016-Jul-24 23:04N 31°09' E 122°39'0 0.1
2016-Jul-24 22:33N 31°09' E 122°39'0 0.0
2016-Jul-24 21:33N 31°09' E 122°39'0 0.1
2016-Jul-24 20:33N 31°09' E 122°39'0 0.0
2016-Jul-24 16:30N 31°09' E 122°38'35 9.0
2016-Jul-24 12:33N 30°37' E 122°57'713.3
2016-Jul-24 12:00N 30°30' E 122°54'613.1 160 / 101010.0 5.4 27.025.728.0
2016-Jul-24 11:31N 30°25' E 122°59'1111.5
2016-Jul-24 10:33N 30°14' E 123°01'1111.0
2016-Jul-24 09:33N 30°03' E 123°02'1111.5
2016-Jul-24 08:33N 29°52' E 122°60'1211.7
2016-Jul-24 07:33N 29°41' E 122°57'1712.5
2016-Jul-24 06:11N 29°25' E 122°50'2112.9
2016-Jul-24 04:33N 29°05' E 122°41'1912.8
2016-Jul-24 03:06N 28°48' E 122°34'4414.1
2016-Jul-24 00:00N 28°06' E 122°18'16013.4 180 / 81010.0 5.4 28.026.728.0
2016-Jul-23 12:00N 25°54' E 120°36'6113.7 230 / 121008.0 5.4 0.527.026.328.0
2016-Jul-23 07:31N 25°03' E 119°59'4613.9
2016-Jul-23 04:13N 24°35' E 119°19'1113.9
2016-Jul-23 03:26N 24°28' E 119°09'1214.0
2016-Jul-23 02:33N 24°21' E 118°58'1414.1
2016-Jul-23 01:32N 24°12' E 118°46'1414.1
2016-Jul-23 00:33N 24°04' E 118°34'1413.7
2016-Jul-22 23:33N 23°55' E 118°22'1312.9
2016-Jul-22 22:32N 23°47' E 118°11'1412.2
2016-Jul-22 21:25N 23°39' E 117°59'5012.2
2016-Jul-22 17:17N 23°08' E 117°16'1214.5
2016-Jul-22 16:28N 23°01' E 117°06'1314.0
2016-Jul-22 15:30N 22°52' E 116°55'1313.4
2016-Jul-22 14:33N 22°44' E 116°44'16410.8
2016-Jul-21 23:22N 22°09' E 113°50'911.2
2016-Jul-21 22:33N 22°18' E 113°48'1110.8
2016-Jul-21 21:33N 22°27' E 113°53'0 0.1
2016-Jul-21 20:32N 22°28' E 113°53'0 0.0
2016-Jul-21 19:33N 22°28' E 113°53'0 0.0
2016-Jul-21 18:33N 22°28' E 113°53'0 0.0
2016-Jul-21 17:32N 22°28' E 113°53'0 0.0
2016-Jul-21 16:33N 22°28' E 113°53'0 0.0
2016-Jul-21 15:33N 22°27' E 113°53'0 0.0
2016-Jul-21 14:31N 22°28' E 113°53'0 0.0
2016-Jul-21 13:33N 22°28' E 113°53'0 0.0
2016-Jul-21 12:32N 22°28' E 113°53'0 0.0
2016-Jul-21 11:29N 22°28' E 113°53'0 0.0
2016-Jul-21 10:33N 22°28' E 113°53'0 0.0
2016-Jul-21 09:32N 22°28' E 113°53'0 0.0
2016-Jul-21 08:32N 22°28' E 113°53'0 0.0
2016-Jul-21 07:16N 22°28' E 113°53'0 0.0
2016-Jul-21 06:32N 22°28' E 113°53'0 0.0
2016-Jul-21 05:27N 22°28' E 113°53'0 0.0
2016-Jul-21 04:33N 22°28' E 113°53'1010.3
2016-Jul-21 03:33N 22°18' E 113°48'12 0.9
2016-Jul-20 15:06N 22°07' E 113°51'610.9
2016-Jul-20 14:33N 22°13' E 113°49'1312.6
2016-Jul-20 13:33N 22°25' E 113°46'1411.8
2016-Jul-20 12:20N 22°39' E 113°41'  
Track history (hours):
 
Tides and Currents Weather Stations Pressure Air Temp Water Temp Dewpoint Dewpoint Depression Visibility Wind Speed Wind Dir Waves Ship Positions

CMA CGM Butterfly

Last reported at 2016-Jul-30 04:33 UTC. Time now 2016-Jul-30 05:26 UTC.
Position N 22°20' E 114°08'.

Length 350 m; draft 10.2 m.

Type: Ship (hazmat cat A). MMSI: 636091420.

Date/timePositionNaut miles runAvg speedWind from/ knotsBaromVisibWave heightAir tempDewpointWater temp
2016-Jul-30 04:33N 22°20' E 114°08'0 0.0
2016-Jul-30 03:33N 22°20' E 114°08'0 0.0
2016-Jul-30 02:33N 22°20' E 114°08'0 0.0
2016-Jul-30 01:27N 22°20' E 114°08'14511.2
2016-Jul-29 12:33N 22°43' E 116°42'6 9.9
2016-Jul-29 12:00N 22°42' E 116°48'1720.4 290 / 141007.510.8 0.525.022.927.0
2016-Jul-29 11:10N 22°55' E 117°00'914.1
2016-Jul-29 10:33N 22°60' E 117°08'6913.8
2016-Jul-29 05:33N 23°36' E 118°11'1413.8
2016-Jul-29 04:30N 23°44' E 118°25'1313.9
2016-Jul-29 03:33N 23°51' E 118°37'1813.8
2016-Jul-29 02:15N 23°60' E 118°54'1214.0
2016-Jul-29 01:22N 24°08' E 119°04'1611.7
2016-Jul-29 00:00N 24°18' E 119°18'1221.0 170 / 101007.010.8 27.526.827.0
2016-Jul-28 23:26N 24°29' E 119°24'1213.6
2016-Jul-28 22:32N 24°37' E 119°33'1313.3
2016-Jul-28 21:33N 24°47' E 119°43'1413.7
2016-Jul-28 20:33N 24°58' E 119°52'1313.5
2016-Jul-28 19:33N 25°07' E 120°03'10113.3
2016-Jul-28 12:00N 26°30' E 121°06'14713.8 190 / 131007.5 5.4 0.528.027.327.0
2016-Jul-28 01:17N 28°37' E 122°29'1418.6
2016-Jul-28 00:33N 28°50' E 122°34'4 7.2
2016-Jul-28 00:00N 28°54' E 122°36'1221.9 200 / 111006.5 5.4 0.527.527.526.0
2016-Jul-27 23:26N 29°06' E 122°40'1414.1
2016-Jul-27 22:25N 29°19' E 122°46'1314.2
2016-Jul-27 21:29N 29°32' E 122°51'1414.0
2016-Jul-27 20:27N 29°45' E 122°56'1314.1
2016-Jul-27 19:33N 29°57' E 123°01'2813.5
2016-Jul-27 17:31N 30°25' E 122°59'1513.1
2016-Jul-27 16:21N 30°40' E 122°58'1113.4
2016-Jul-27 15:31N 30°51' E 122°56'2612.2
2016-Jul-27 13:24N 31°05' E 122°31'1011.0
2016-Jul-27 12:31N 31°06' E 122°19'1212.1
2016-Jul-27 11:33N 31°12' E 122°08'1413.5
2016-Jul-27 10:32N 31°16' E 121°52'1211.7
2016-Jul-27 09:33N 31°21' E 121°40'5 4.5
2016-Jul-27 08:26N 31°23' E 121°35'0 0.0
2016-Jul-27 07:32N 31°23' E 121°35'0 0.0
2016-Jul-27 06:32N 31°23' E 121°35'0 0.0
2016-Jul-27 05:32N 31°23' E 121°35'0 0.0
2016-Jul-27 04:32N 31°23' E 121°35'0 0.0
2016-Jul-27 03:29N 31°23' E 121°35'0 0.0
2016-Jul-27 02:32N 31°23' E 121°35'0 0.1
2016-Jul-27 01:26N 31°23' E 121°35'0 0.1
2016-Jul-27 00:32N 31°23' E 121°35'0 0.0
2016-Jul-26 23:32N 31°23' E 121°35'0 0.0
2016-Jul-26 22:32N 31°23' E 121°35'0 0.0
2016-Jul-26 21:32N 31°23' E 121°35'0 0.0
2016-Jul-26 20:32N 31°23' E 121°35'0 0.0
2016-Jul-26 19:26N 31°23' E 121°35'0 0.0
2016-Jul-26 17:32N 31°23' E 121°35'0 0.0
2016-Jul-26 16:29N 31°23' E 121°35'0 0.0
2016-Jul-26 15:32N 31°23' E 121°35'0 0.0
2016-Jul-26 14:20N 31°23' E 121°35'0 0.0
2016-Jul-26 13:20N 31°23' E 121°35'0 0.0
2016-Jul-26 12:32N 31°23' E 121°35'0 0.0
2016-Jul-26 11:32N 31°23' E 121°35'0 0.0
2016-Jul-26 10:32N 31°23' E 121°35'0 0.0
2016-Jul-26 09:32N 31°23' E 121°35'1 0.9
2016-Jul-26 08:32N 31°23' E 121°34'7 6.9
2016-Jul-26 07:33N 31°20' E 121°41'1010.5
2016-Jul-26 06:33N 31°16' E 121°52'1110.8
2016-Jul-26 05:32N 31°14' E 122°05'19 9.1
2016-Jul-26 03:28N 31°07' E 122°25'9 9.5
2016-Jul-26 02:31N 31°07' E 122°36'1 0.5
2016-Jul-26 00:00N 31°06' E 122°36'3 0.4 170 / 201007.0 5.4 1.026.025.326.0
2016-Jul-25 14:31N 31°09' E 122°39'0 0.0
2016-Jul-25 12:28N 31°09' E 122°39'0 0.1
2016-Jul-25 11:31N 31°09' E 122°39'0 0.0
2016-Jul-25 10:19N 31°09' E 122°39'0 0.0
2016-Jul-25 00:21N 31°09' E 122°39'3 9.4
2016-Jul-25 00:00N 31°06' E 122°36'3 3.7 170 / 171010.810.8 0.527.024.326.0
2016-Jul-24 23:04N 31°09' E 122°39'0 0.1
2016-Jul-24 22:33N 31°09' E 122°39'0 0.0
2016-Jul-24 21:33N 31°09' E 122°39'0 0.1
2016-Jul-24 20:33N 31°09' E 122°39'0 0.0
2016-Jul-24 16:30N 31°09' E 122°38'35 9.0
2016-Jul-24 12:33N 30°37' E 122°57'713.3
2016-Jul-24 12:00N 30°30' E 122°54'613.1 160 / 101010.0 5.4 27.025.728.0
2016-Jul-24 11:31N 30°25' E 122°59'1111.5
2016-Jul-24 10:33N 30°14' E 123°01'1111.0
2016-Jul-24 09:33N 30°03' E 123°02'1111.5
2016-Jul-24 08:33N 29°52' E 122°60'1211.7
2016-Jul-24 07:33N 29°41' E 122°57'1712.5
2016-Jul-24 06:11N 29°25' E 122°50'2112.9
2016-Jul-24 04:33N 29°05' E 122°41'1912.8
2016-Jul-24 03:06N 28°48' E 122°34'4414.1
2016-Jul-24 00:00N 28°06' E 122°18'16013.4 180 / 81010.0 5.4 28.026.728.0
2016-Jul-23 12:00N 25°54' E 120°36'6113.7 230 / 121008.0 5.4 0.527.026.328.0
2016-Jul-23 07:31N 25°03' E 119°59'4613.9
2016-Jul-23 04:13N 24°35' E 119°19'1113.9
2016-Jul-23 03:26N 24°28' E 119°09'1214.0
2016-Jul-23 02:33N 24°21' E 118°58'1414.1
2016-Jul-23 01:32N 24°12' E 118°46'1414.1
2016-Jul-23 00:33N 24°04' E 118°34'1413.7
2016-Jul-22 23:33N 23°55' E 118°22'1312.9
2016-Jul-22 22:32N 23°47' E 118°11'1412.2
2016-Jul-22 21:25N 23°39' E 117°59'5012.2
2016-Jul-22 17:17N 23°08' E 117°16'1214.5
2016-Jul-22 16:28N 23°01' E 117°06'1314.0
2016-Jul-22 15:30N 22°52' E 116°55'1313.4
2016-Jul-22 14:33N 22°44' E 116°44'16410.8
2016-Jul-21 23:22N 22°09' E 113°50'911.2
2016-Jul-21 22:33N 22°18' E 113°48'1110.8
2016-Jul-21 21:33N 22°27' E 113°53'0 0.1
2016-Jul-21 20:32N 22°28' E 113°53'0 0.0
2016-Jul-21 19:33N 22°28' E 113°53'0 0.0
2016-Jul-21 18:33N 22°28' E 113°53'0 0.0
2016-Jul-21 17:32N 22°28' E 113°53'0 0.0
2016-Jul-21 16:33N 22°28' E 113°53'0 0.0
2016-Jul-21 15:33N 22°27' E 113°53'0 0.0
2016-Jul-21 14:31N 22°28' E 113°53'0 0.0
2016-Jul-21 13:33N 22°28' E 113°53'0 0.0
2016-Jul-21 12:32N 22°28' E 113°53'0 0.0
2016-Jul-21 11:29N 22°28' E 113°53'0 0.0
2016-Jul-21 10:33N 22°28' E 113°53'0 0.0
2016-Jul-21 09:32N 22°28' E 113°53'0 0.0
2016-Jul-21 08:32N 22°28' E 113°53'0 0.0
2016-Jul-21 07:16N 22°28' E 113°53'0 0.0
2016-Jul-21 06:32N 22°28' E 113°53'0 0.0
2016-Jul-21 05:27N 22°28' E 113°53'0 0.0
2016-Jul-21 04:33N 22°28' E 113°53'1010.3
2016-Jul-21 03:33N 22°18' E 113°48'12 0.9
2016-Jul-20 15:06N 22°07' E 113°51'610.9
2016-Jul-20 14:33N 22°13' E 113°49'1312.6
2016-Jul-20 13:33N 22°25' E 113°46'1411.8
2016-Jul-20 12:20N 22°39' E 113°41'  

Dump ship's entire track history